長崎空港

2017/01/25

日常 長崎空港 2017/1/19 thu

長崎最後は、大村でのんびり観天望機です。ホテルから散策しながら空港まで歩きます。

20170119_rjfu_00ja816a

ANA662 RJFU-RJTT JA816A B787-8

RJFU 190000Z 14008KT 9999 BKN050 08/04 Q1022

20170119_rjfu_01ja221j

JAL2372 RJFU-RJOO JA221J ERJ-170STD

20170119_rjfu_02ja658j

JAL605 RJTT-RJFU JA658J B767-346ER

20170119_rjfu_03ja808x

SNJ34 RJFU-RJTT JA808X B737-81D

20170119_rjfu_04ja802b

NGK71 RJFU-RJFE JA802B DHC8-201

20170119_rjfu_05m8976

大村飛行場でも動きが・・

20170119_rjfu_06m8976

8976 UH-60J HS-72

20170119_rjfu_07ja73an

ANA372 RJFU-RJGG JA73AN B737-881

20170119_rjfu_08yf2125

YF2125 大村航空基地の交通船2125号が出港です。

RJFU 190100Z 13005KT 9999 FEW040 BKN050 09/05 Q1022

20170119_rjfu_09m8448

8448 SH-60K HS-22

20170119_rjfu_10yf2125

なにやら、シードロームのブイ点検の模様

20170119_rjfu_11m8448

48号機がローディングランプで訓練の模様

20170119_rjfu_12m8448

救難の73号機もストップ&ゴー訓練中

20170119_rjfu_13ja658j

JAL608 RJFU-RJTT JA658J B767-346ER

20170119_rjfu_14m8448

48号機これからデパーチャー

20170119_rjfu_15m8976

今度は76号機がローディングランプ

20170119_rjfu_16m8976

後ろから見ると日の丸が目のように見えます

RJFU 190200Z 16002KT 9999 BKN050 BKN070 09/04 Q1022

20170119_rjfu_17m8976

オートローテーションの模様

20170119_rjfu_18ja830a

長崎空港側はランチェン RW32になりました。

20170119_rjfu_19ja830a

ANA664 RJFU-RJTT JA830A B787-9

20170119_rjfu_20ja4214

JA4214 A36 CAC

20170119_rjfu_21m8411

8411 SH-60K HS-22

20170119_rjfu_22ja73ne

SKY142 RJFU-RJBE JA73NE B737-82Y

20170119_rjfu_23ja801b

NKG53 RJFU-RJDT JA801B DHC8-201

20170119_rjfu_24ja5304

JA5304 BE58 SJU T/G

20170119_rjfu_25ja76an

ANA1871 RJFU-ROAH JA76AN B737-881

20170119_rjfu_26m8456

8456 SH-60K HS-22

20170119_rjfu_27ja810x

SNJ33 RJTT-RJFU JA810X B737-86N

20170119_rjfu_28ja221j

JAL2373 RJOO-RJFU JA221J ERJ-170STD

RJFU 190300Z VRB01KT 9999 BKN050 BKN070 10/04 Q1020

20170119_rjfu_29ja221j

朝方見た機体が戻ってきたみたい

20170119_rjfu_30ja346j

20170119_rjfu_31ja346j

JAL607 RJTT-RJFU JA346J B737-846

20170119_rjfu_32ja810x

SNJ38 RJFU-RJTT JA810X B737-86N

20170119_rjfu_33ja5304

JA5304 BE58 SJU

20170119_rjfu_34ja221j

JAL2374 RJFU-RJOO JA221J ERJ-170STD

20170119_rjfu_35m8429

8429 SH-60K HS-22

20170119_rjfu_36ja801b

NGK54 RJDT-RJFU JA801B DHC8-201

20170119_rjfu_37m8448

48号機は、まだグルグル廻っています。

RJFU 190400Z 24004KT 9999 BKN050 BKN070 11/05 Q1019

20170119_rjfu_38ja818a

20170119_rjfu_39ja818a

ANA663 RJTT-RJFU JA818A B787-8

20170119_rjfu_40ja827h

JA827H EC-135P2+ HRT 長崎県ドクターへり

20170119_rjfu_41ja346j

JAL610 RJFU-RJTT JA346J B737-846

20170119_rjfu_42ja818a

787 ですね・・

20170119_rjfu_43ja801b

ORCが訓練飛行の模様

20170119_rjfu_44ja801b

NGK801B JA801B DHC8-201

20170119_rjfu_45m8448

48号機が物資輸送の訓練 

20170119_rjfu_46ja801b

誘導路で止まって、パイロットチェンジ

20170119_rjfu_47m8448

ローディングランプに戻るようです

20170119_rjfu_48ja801b

2回づつT/G実施

20170119_rjfu_49ja818a

ピカッ

20170119_rjfu_50ja306k

RJFU 190500Z 05002KT 9999 BKN050 BKN070 12/04 Q1018

20170119_rjfu_51ja306k

ANA783 RJOO-RJFU JA306K B737-54K

20170119_rjfu_52ja802b

これで終わりのはずが、大きくジャンプしたので、G/A

20170119_rjfu_53ja818a

ANA666 RJFU-RJTT JA818A B787-8

20170119_rjfu_54ja802b

NGK74 RJFE-RJFU JA802B DHC8-201

20170119_rjfu_55ja802b

なんとか2機

20170119_rjfu_56ja801b

訓練機が後からスポットイン

20170119_rjfu_57ja801b

ORC2枚

RJFU 190600Z 28004KT 9999 FEW040 BKN050 BKN070 12/03 Q1018

これにてデッキでの望機は終えて、搭乗します。

20170119_rjfu_58ja809x

SNJ35 RJTT-RJFU JA809X B737-86N

20170119_rjfu_59ja73nq

SKY146 RJFU-RJBE JA73NQ B737-81D

20170119_rjfu_60ja802p

APJ177 RJBB-RJFU JA802P A320-214

小生の乗機がやって来ましたので、長崎はこれにてお終い。

| | コメント (0) | トラックバック (0)

2017/01/21

曇りだった 長崎空港 2017/1/17 tue

過去を遡れば17年ぶりの長崎空港。パット見、あまり変ったところはないようです。

RJFU 170600Z 30005KT 250V340 9999 FEW030 BKN/// 11/M01 Q1027

20170117_rjfu_00welcom

月末は長崎ランタンフェスティバルだそうです。

20170117_rjfu_01welcom

ここにも顔出し看板

20170117_rjfu_02ja811p

小生の乗ってきた機体も折り返し準備中

20170117_rjfu_03ja8975

20170117_rjfu_04ja8975

JAL612 RJFU-RJTT JA8975 B767-346

20170117_rjfu_05m8976

8976 UH-60J HS72

大村飛行場では、海自へりがT/G訓練中

20170117_rjfu_06ja808x

20170117_rjfu_07ja808x

SNJ40 RJFU-RJTT JA808X B737-8

20170117_rjfu_08m8456

8456 SH-60K HS22

20170117_rjfu_09ja802b

オリエンタルエアブリッジ 昔は、長崎航空って言ってたね。

20170117_rjfu_10ja811p

なんか、一気に出発ラッシュ

20170117_rjfu_11ja227j

J-AIRもプッシュ

20170117_rjfu_12ja227j

いってらっしゃーい

20170117_rjfu_13ja802b

NGK45 RJFU-RJDB JA802B DHC8-201

20170117_rjfu_14ja811p

APJ178 RJFU-RJBB JA811P A320-214

20170117_rjfu_15ja227j

JAL2376 RJFU-RJOO JA227J ERJ-170STD

20170117_rjfu_16m8456

訓練は続いています

RJFU 170700Z 36004KT 9999 FEW030 BKN/// 10/M01 Q1028

20170117_rjfu_17ja344j

JAL611 RJTT-RJFU JA344J B737-846

20170117_rjfu_18ja73np

SKY145 RJBE-RJFU JA73NP B737-8HX

20170117_rjfu_19m8450

8450 SH-60K HS22

20170117_rjfu_20m8976

ひっきりなしにグールグル

20170117_rjfu_21m8976

まだまだ見ていたいのですが、ここで切り上げて長崎市街へ向かいます。

RJFU 170800Z 06001KT 9999 FEW030 SCT050 BKN/// 10/M01 Q1028

20170117_rjfu_22sunset

長崎自動車道のバスから見る夕陽が美しかった。

つづく・・

| | コメント (0) | トラックバック (0)

2017/01/20

特売旅 MM177 2017/1/17 tue

新春のセールツアー。さて、今回はどこにしよーかなぁ?と、思案したところ・・ 思案橋に決定。桃組で、関空から出発です。

RJBB 170300Z 34010KT 300V020 9999 FEW020 08/M02 Q1028 NOSIG

20170117_ajp177_00rjbb

関空第2ターミナルビルは、拡張中

20170117_ajp177_01rjbb

国際線ビルが独立して、この28日から運用開始です。

20170117_ajp177_02rjbb

小生の行った翌日に、内覧会があった模様です。

20170117_ajp177_03rjbb

あれよと言う間に、桃組の国際線もこんなにあるんだねぇぇ。ビジネスのスピードについていけない。

RJBB 170430Z 33005KT 290V010 9999 FEW025 BKN045 07/M02 Q1028 NOSIG

20170117_ajp177_04ja811p

さて、搭乗です。向かうは長崎。

20170117_ajp177_05ja817p

丁度、フォルクスワーゲンが降りてきた。

20170117_ajp177_06ja811p

桃太郎についていきます。

20170117_ajp177_07ja817p

AJP312 RJAA-RJBB JA817P A320-214

20170117_ajp177_08b18718

BB CAL5157 PANC-RJBB B-18718 B747-409F / B-8280 G280 Mandarin Air 

20170117_ajp177_09rjbb

RWは06

20170117_ajp177_10rjbb

20170117_ajp177_11ki

なんとかKN跡を確保

20170117_ajp177_12rjbe

雲間に神戸空港

20170117_ajp177_13rjob

岡山空港

20170117_ajp177_14rjfu

宗像市あたりから九州上陸

20170117_ajp177_15rjfu

長崎はRW04

20170117_ajp177_16rjfu

多良岳越しに長崎空港を視認

RJFU 170600Z 30005KT 250V340 9999 FEW030 BKN/// 11/M01 Q1027

20170117_ajp177_18rjfu

長崎の目印、仏舎利塔。その左奥はドクヘリを運用する国立長崎医療センター 

20170117_ajp177_19rjfu

海上自衛隊大村航空基地のRW36

20170117_ajp177_20rjfu

20170117_ajp177_21rjfu

20170117_ajp177_22ja811p

AJP177 RJBB-RJFU JA811P A320-214

これから2泊3日のお散歩です。

| | コメント (0) | トラックバック (0)

2012/03/27

回想 長崎空港 2000/3/19 sun

前回:上五島空港

NAW82便で上五島空港から長崎空港に向かっています。

20000319_ja5316_50rjfu

長崎空港RW32のダウンウインドに入り、長崎空港がよく見えます。手前は、空港防災教育訓練センターの訓練場。

20000319_ja5316_51rjfu

箕島の上には、長崎VOR/DME(OLE)

20000319_ja5316_52rjfu

ファィナル

20000319_rjfu_53tower

長崎空港のタワーは新しいタワーに変わっていた。

20000319_rjfu_54jas769

JAS769 RJOO-RJFU JA???? MD-81

20000319_rjfu_55ana665

ANA665 RJTT-RJFU JA???? B747-481D

20000319_rjfu_56ja105a

ANA374 RJFU-RJNN JA105A A321-131

当日は、大村市内に宿泊して、離島めぐりは続くのであった。

次回:壱岐空港

| | コメント (0) | トラックバック (0)

2006/03/15

空想出 I LOVE ISLANDER 2000/3/19

20000319_naw40_ja5316120000319_naw40_ja5316220000319_NAW40_RJFUでは、早速上五島から長崎までアイランダーこと、ブリテンノーマンBN2に乗りましょう。この飛行機、7人乗りで丁度ワゴンのようなもの。乗り降りはそれぞれの座席列についているドアから。御覧のように操縦を見学しながらのフライトです。

左:イントゥポジション エンジンを開いて離陸です 中:高度3400ft 速度120kt で巡航中です 右:長崎空港のダウンウインド 飛行機の模型は、消化訓練施設です いずれも2000/3/19 RJDK-RJFU NAW40 JA5316

| | コメント (0) | トラックバック (0)

その他のカテゴリー

BI Boading record aircraft Boading record ship FlightTracking lighthouse NAVAIDS RJNT LOG SKY MASSAGE US NAVY USMC うみ おか そら てつ アクシデント エアロック チーム室屋 三沢飛行場 上五島空港 下地島空港 下総飛行場 与那国空港 中標津空港 中部国際空港 久米島空港 五島福江空港 仙台空港 伊江島空港 但馬空港 佐賀空港 入間飛行場 八尾空港 八戸飛行場 出雲空港 函館空港 利尻空港 北九州空港 十勝飛行場 千歳飛行場 博物館 厚木飛行場 名古屋飛行場 喜界空港 嘉手納飛行場 場外 壱岐空港 大分空港 大湊飛行場 大阪国際空港 大館能代空港 天草空港 奄美空港 奥尻空港 宇部山口空港 宇都宮飛行場 宮古空港 宮崎空港 富山空港 小松島飛行場 小松飛行場 屋久島空港 山形空港 岐阜飛行場 岡山空港 岩国飛行場 帯広空港 広島空港 庄内空港 徳之島空港 徳島飛行場 成田国際空港 新潟空港 新田原飛行場 旭川空港 旭川飛行場 明野飛行場 普天間飛行場 木更津飛行場 札幌飛行場 東京国際空港 松山空港 松島飛行場 松本空港 横田飛行場 沖永良部空港 波照間空港 浜松飛行場 海上保安庁 海上自衛隊 海外 熊本空港 百里飛行場 相馬原飛行場 石垣空港 石見空港 礼文空港 神戸空港 福井空港 福岡空港 福島空港 秋田空港 種子島空港 空撮 立川飛行場 築城飛行場 美保飛行場 能登空港 舞鶴飛行場 航空自衛隊 芦屋飛行場 花巻空港 調布飛行場 警務消防 那覇空港 釧路空港 長崎空港 関西国際空港 陸上自衛隊 隠岐空港 霞ヶ浦飛行場 霞目飛行場 青森空港 静岡空港 静浜飛行場 飛行場跡 飛行船 鹿児島空港 鹿屋飛行場